KEN5050 KBFI-KORS
Flight info
| Callsign | KEN5050 |
|---|---|
| Flight time | 0h 43m |
| Altitude | 8000 |
| Route | LOFAL CVV |
| Aircraft | C208/L-SDFGRY/C |
Departure
| Time | 2026-05-05 14:43 |
|---|---|
| Airport | King County International Airport - Boeing Field (KBFI) |
Arrival
| Time | 2026-05-05 15:26 |
|---|---|
| Airport | Orcas Island Airport (KORS) |
| Time | Latitude | Longitude | Altitude | Speed | Heading |
|---|---|---|---|---|---|
| 2026-05-05 14:18 | 47.53651 | -122.30454 | 26 ft | 0 kts | 140° |
| 2026-05-05 14:34 | 47.53650 | -122.30451 | 26 ft | 3 kts | 143° |
| 2026-05-05 14:34 | 47.53630 | -122.30486 | 26 ft | 9 kts | 277° |
| 2026-05-05 14:34 | 47.53704 | -122.30571 | 26 ft | 18 kts | 330° |
| 2026-05-05 14:34 | 47.53818 | -122.30667 | 26 ft | 20 kts | 330° |
| 2026-05-05 14:35 | 47.53932 | -122.30764 | 27 ft | 18 kts | 330° |
| 2026-05-05 14:35 | 47.54031 | -122.30850 | 26 ft | 16 kts | 325° |
| 2026-05-05 14:35 | 47.54106 | -122.30942 | 26 ft | 11 kts | 300° |
| 2026-05-05 14:35 | 47.54088 | -122.31022 | 26 ft | 2 kts | 240° |
| 2026-05-05 14:41 | 47.54085 | -122.31030 | 26 ft | 4 kts | 240° |
| 2026-05-05 14:41 | 47.54053 | -122.31105 | 27 ft | 10 kts | 222° |
| 2026-05-05 14:42 | 47.54011 | -122.31099 | 26 ft | 0 kts | 150° |
| 2026-05-05 14:42 | 47.53978 | -122.31072 | 25 ft | 25 kts | 151° |
| 2026-05-05 14:42 | 47.53659 | -122.30801 | 29 ft | 76 kts | 151° |
| 2026-05-05 14:43 | 47.53142 | -122.30352 | 161 ft | 91 kts | 152° |
| 2026-05-05 14:43 | 47.52613 | -122.29852 | 391 ft | 92 kts | 150° |
| 2026-05-05 14:43 | 47.51998 | -122.29343 | 525 ft | 108 kts | 152° |
| 2026-05-05 14:43 | 47.51334 | -122.28785 | 750 ft | 110 kts | 152° |
| 2026-05-05 14:44 | 47.50750 | -122.28063 | 999 ft | 114 kts | 116° |
| 2026-05-05 14:44 | 47.50740 | -122.26897 | 1266 ft | 116 kts | 85° |
| 2026-05-05 14:44 | 47.50815 | -122.25689 | 1535 ft | 119 kts | 87° |
| 2026-05-05 14:44 | 47.50889 | -122.24471 | 1795 ft | 118 kts | 88° |
| 2026-05-05 14:45 | 47.51093 | -122.23302 | 2044 ft | 120 kts | 57° |
| 2026-05-05 14:45 | 47.51835 | -122.22850 | 2301 ft | 122 kts | 345° |
| 2026-05-05 14:45 | 47.52621 | -122.23309 | 2571 ft | 123 kts | 335° |
| 2026-05-05 14:45 | 47.53433 | -122.23767 | 2833 ft | 126 kts | 335° |
| 2026-05-05 14:46 | 47.54252 | -122.24244 | 3092 ft | 126 kts | 335° |
| 2026-05-05 14:46 | 47.55066 | -122.24729 | 3354 ft | 126 kts | 335° |
| 2026-05-05 14:46 | 47.55871 | -122.25237 | 3605 ft | 125 kts | 335° |
| 2026-05-05 14:46 | 47.56666 | -122.25756 | 3874 ft | 123 kts | 335° |
| 2026-05-05 14:47 | 47.57423 | -122.26271 | 4220 ft | 115 kts | 335° |
| 2026-05-05 14:47 | 47.58121 | -122.26770 | 4571 ft | 108 kts | 335° |
| 2026-05-05 14:47 | 47.58796 | -122.27253 | 4812 ft | 110 kts | 335° |
| 2026-05-05 14:47 | 47.59484 | -122.27753 | 5053 ft | 110 kts | 335° |
| 2026-05-05 14:48 | 47.60172 | -122.28259 | 5297 ft | 110 kts | 335° |
| 2026-05-05 14:48 | 47.60857 | -122.28770 | 5540 ft | 111 kts | 335° |
| 2026-05-05 14:48 | 47.61545 | -122.29288 | 5786 ft | 111 kts | 335° |
| 2026-05-05 14:48 | 47.62234 | -122.29807 | 6033 ft | 111 kts | 335° |
| 2026-05-05 14:49 | 47.62912 | -122.30358 | 6285 ft | 112 kts | 324° |
| 2026-05-05 14:49 | 47.63409 | -122.31264 | 6530 ft | 114 kts | 313° |
| 2026-05-05 14:49 | 47.63923 | -122.32160 | 6761 ft | 114 kts | 315° |
| 2026-05-05 14:49 | 47.64442 | -122.33048 | 7003 ft | 114 kts | 315° |
| 2026-05-05 14:50 | 47.64966 | -122.33939 | 7215 ft | 116 kts | 315° |
| 2026-05-05 14:50 | 47.65497 | -122.34835 | 7409 ft | 119 kts | 315° |
| 2026-05-05 14:50 | 47.66059 | -122.35780 | 7616 ft | 122 kts | 315° |
| 2026-05-05 14:50 | 47.66621 | -122.36726 | 7793 ft | 127 kts | 315° |
| 2026-05-05 14:51 | 47.67222 | -122.37733 | 7931 ft | 133 kts | 314° |
| 2026-05-05 14:51 | 47.67843 | -122.38782 | 8054 ft | 139 kts | 314° |
| 2026-05-05 14:51 | 47.68512 | -122.39904 | 8061 ft | 150 kts | 314° |
| 2026-05-05 14:51 | 47.69213 | -122.41084 | 8059 ft | 155 kts | 314° |
| 2026-05-05 14:52 | 47.69934 | -122.42299 | 8060 ft | 158 kts | 314° |
| 2026-05-05 14:52 | 47.70665 | -122.43532 | 8057 ft | 160 kts | 314° |
| 2026-05-05 14:52 | 47.71402 | -122.44775 | 8059 ft | 161 kts | 314° |
| 2026-05-05 14:52 | 47.72144 | -122.46029 | 8054 ft | 162 kts | 314° |
| 2026-05-05 14:53 | 47.72889 | -122.47289 | 8049 ft | 163 kts | 314° |
| 2026-05-05 14:53 | 47.73636 | -122.48550 | 8049 ft | 162 kts | 314° |
| 2026-05-05 14:53 | 47.74380 | -122.49805 | 8046 ft | 161 kts | 313° |
| 2026-05-05 14:53 | 47.75122 | -122.51061 | 8048 ft | 161 kts | 313° |
| 2026-05-05 14:54 | 47.75864 | -122.52316 | 8045 ft | 162 kts | 313° |
| 2026-05-05 14:54 | 47.76606 | -122.53572 | 8046 ft | 162 kts | 313° |
| 2026-05-05 14:54 | 47.77346 | -122.54826 | 8017 ft | 161 kts | 313° |
| 2026-05-05 14:54 | 47.78072 | -122.56054 | 8012 ft | 161 kts | 314° |
| 2026-05-05 14:55 | 47.78829 | -122.57337 | 8008 ft | 161 kts | 313° |
| 2026-05-05 14:55 | 47.79569 | -122.58592 | 8009 ft | 162 kts | 313° |
| 2026-05-05 14:55 | 47.80304 | -122.59840 | 8005 ft | 162 kts | 313° |
| 2026-05-05 14:55 | 47.81046 | -122.61100 | 8005 ft | 162 kts | 313° |
| 2026-05-05 14:56 | 47.81790 | -122.62362 | 8027 ft | 162 kts | 313° |
| 2026-05-05 14:56 | 47.82532 | -122.63624 | 8027 ft | 162 kts | 313° |
| 2026-05-05 14:56 | 47.83276 | -122.64888 | 8012 ft | 162 kts | 313° |
| 2026-05-05 14:56 | 47.84020 | -122.66152 | 8007 ft | 162 kts | 313° |
| 2026-05-05 14:57 | 47.84777 | -122.67391 | 8001 ft | 161 kts | 320° |
| 2026-05-05 14:57 | 47.85764 | -122.68117 | 7991 ft | 159 kts | 347° |
| 2026-05-05 14:57 | 47.86858 | -122.68268 | 7994 ft | 158 kts | 356° |
| 2026-05-05 14:57 | 47.87955 | -122.68384 | 7995 ft | 158 kts | 355° |
| 2026-05-05 14:58 | 47.89050 | -122.68506 | 7997 ft | 158 kts | 355° |
| 2026-05-05 14:58 | 47.90150 | -122.68628 | 8001 ft | 159 kts | 355° |
| 2026-05-05 14:58 | 47.91254 | -122.68752 | 8001 ft | 159 kts | 356° |
| 2026-05-05 14:58 | 47.92357 | -122.68872 | 7972 ft | 160 kts | 355° |
| 2026-05-05 14:59 | 47.93453 | -122.68995 | 7977 ft | 160 kts | 355° |
| 2026-05-05 14:59 | 47.94568 | -122.69119 | 7981 ft | 161 kts | 355° |
| 2026-05-05 14:59 | 47.95685 | -122.69243 | 7988 ft | 161 kts | 355° |
| 2026-05-05 14:59 | 47.96803 | -122.69369 | 7993 ft | 161 kts | 355° |
| 2026-05-05 15:00 | 47.97922 | -122.69492 | 8000 ft | 161 kts | 355° |
| 2026-05-05 15:00 | 47.98678 | -122.69577 | 8011 ft | 160 kts | 355° |
| 2026-05-05 15:00 | 48.00148 | -122.69741 | 8017 ft | 159 kts | 355° |
| 2026-05-05 15:00 | 48.01252 | -122.69864 | 8022 ft | 158 kts | 355° |
| 2026-05-05 15:01 | 48.02350 | -122.69986 | 8023 ft | 158 kts | 355° |
| 2026-05-05 15:01 | 48.03450 | -122.70109 | 8028 ft | 158 kts | 355° |
| 2026-05-05 15:01 | 48.04544 | -122.70231 | 8032 ft | 157 kts | 355° |
| 2026-05-05 15:01 | 48.05634 | -122.70353 | 8035 ft | 158 kts | 355° |
| 2026-05-05 15:02 | 48.06728 | -122.70475 | 8036 ft | 157 kts | 355° |
| 2026-05-05 15:02 | 48.07816 | -122.70597 | 8039 ft | 157 kts | 355° |
| 2026-05-05 15:02 | 48.08909 | -122.70718 | 8042 ft | 158 kts | 355° |
| 2026-05-05 15:02 | 48.10004 | -122.70842 | 8047 ft | 157 kts | 355° |
| 2026-05-05 15:03 | 48.11082 | -122.70962 | 8048 ft | 158 kts | 355° |
| 2026-05-05 15:03 | 48.12179 | -122.71085 | 8048 ft | 158 kts | 355° |
| 2026-05-05 15:03 | 48.13269 | -122.71207 | 8053 ft | 157 kts | 355° |
| 2026-05-05 15:03 | 48.14360 | -122.71329 | 8048 ft | 157 kts | 355° |
| 2026-05-05 15:04 | 48.15458 | -122.71452 | 8047 ft | 158 kts | 355° |
| 2026-05-05 15:04 | 48.16549 | -122.71574 | 8045 ft | 158 kts | 355° |
| 2026-05-05 15:04 | 48.17648 | -122.71698 | 8044 ft | 159 kts | 355° |
| 2026-05-05 15:04 | 48.18747 | -122.71822 | 8041 ft | 158 kts | 355° |
| 2026-05-05 15:05 | 48.20952 | -122.72069 | 8062 ft | 159 kts | 355° |
| 2026-05-05 15:05 | 48.22058 | -122.72193 | 8061 ft | 159 kts | 355° |
| 2026-05-05 15:05 | 48.23164 | -122.72318 | 8061 ft | 160 kts | 355° |
| 2026-05-05 15:06 | 48.24274 | -122.72441 | 8062 ft | 160 kts | 356° |
| 2026-05-05 15:06 | 48.25380 | -122.72300 | 8057 ft | 160 kts | 8° |
| 2026-05-05 15:06 | 48.26470 | -122.72057 | 8059 ft | 160 kts | 7° |
| 2026-05-05 15:06 | 48.27589 | -122.71825 | 8054 ft | 160 kts | 6° |
| 2026-05-05 15:07 | 48.28681 | -122.71604 | 8060 ft | 160 kts | 7° |
| 2026-05-05 15:07 | 48.29787 | -122.71378 | 8055 ft | 161 kts | 7° |
| 2026-05-05 15:07 | 48.30908 | -122.71150 | 7939 ft | 166 kts | 7° |
| 2026-05-05 15:07 | 48.32078 | -122.70909 | 7769 ft | 172 kts | 7° |
| 2026-05-05 15:08 | 48.33276 | -122.70662 | 7603 ft | 175 kts | 6° |
| 2026-05-05 15:08 | 48.34489 | -122.70414 | 7423 ft | 177 kts | 7° |
| 2026-05-05 15:08 | 48.35698 | -122.70167 | 7230 ft | 172 kts | 6° |
| 2026-05-05 15:08 | 48.36869 | -122.69928 | 7034 ft | 168 kts | 6° |
| 2026-05-05 15:09 | 48.38025 | -122.69692 | 6841 ft | 167 kts | 7° |
| 2026-05-05 15:09 | 48.39177 | -122.69455 | 6649 ft | 167 kts | 7° |
| 2026-05-05 15:09 | 48.40326 | -122.69219 | 6456 ft | 167 kts | 7° |
| 2026-05-05 15:09 | 48.41461 | -122.68985 | 6256 ft | 167 kts | 7° |
| 2026-05-05 15:10 | 48.42609 | -122.68749 | 6051 ft | 166 kts | 7° |
| 2026-05-05 15:10 | 48.43758 | -122.68512 | 5851 ft | 167 kts | 7° |
| 2026-05-05 15:10 | 48.44912 | -122.68275 | 5654 ft | 167 kts | 7° |
| 2026-05-05 15:10 | 48.46062 | -122.68039 | 5451 ft | 167 kts | 7° |
| 2026-05-05 15:11 | 48.47215 | -122.67800 | 5260 ft | 167 kts | 8° |
| 2026-05-05 15:11 | 48.48365 | -122.67564 | 5062 ft | 167 kts | 7° |
| 2026-05-05 15:11 | 48.49514 | -122.67326 | 4866 ft | 167 kts | 8° |
| 2026-05-05 15:11 | 48.50662 | -122.67090 | 4665 ft | 167 kts | 8° |
| 2026-05-05 15:12 | 48.51815 | -122.66851 | 4445 ft | 167 kts | 7° |
| 2026-05-05 15:12 | 48.52970 | -122.66613 | 4243 ft | 168 kts | 8° |
| 2026-05-05 15:12 | 48.54129 | -122.66373 | 4033 ft | 169 kts | 8° |
| 2026-05-05 15:12 | 48.55287 | -122.66133 | 3895 ft | 168 kts | 8° |
| 2026-05-05 15:13 | 48.56447 | -122.65893 | 3773 ft | 169 kts | 8° |
| 2026-05-05 15:13 | 48.57616 | -122.65651 | 3649 ft | 169 kts | 8° |
| 2026-05-05 15:13 | 48.58786 | -122.65409 | 3526 ft | 170 kts | 8° |
| 2026-05-05 15:13 | 48.59948 | -122.65168 | 3405 ft | 171 kts | 8° |
| 2026-05-05 15:14 | 48.61129 | -122.64924 | 3282 ft | 171 kts | 8° |
| 2026-05-05 15:14 | 48.62314 | -122.64679 | 3158 ft | 173 kts | 8° |
| 2026-05-05 15:14 | 48.63508 | -122.64429 | 3031 ft | 173 kts | 8° |
| 2026-05-05 15:14 | 48.64702 | -122.64183 | 2901 ft | 173 kts | 8° |
| 2026-05-05 15:15 | 48.65901 | -122.63938 | 2785 ft | 174 kts | 8° |
| 2026-05-05 15:15 | 48.67109 | -122.63706 | 2661 ft | 176 kts | 9° |
| 2026-05-05 15:15 | 48.68327 | -122.63441 | 2529 ft | 176 kts | 9° |
| 2026-05-05 15:15 | 48.69535 | -122.63185 | 2404 ft | 175 kts | 9° |
| 2026-05-05 15:16 | 48.70732 | -122.62936 | 2274 ft | 171 kts | 8° |
| 2026-05-05 15:16 | 48.71900 | -122.63085 | 2142 ft | 169 kts | 340° |
| 2026-05-05 15:16 | 48.72974 | -122.63770 | 2034 ft | 165 kts | 336° |
| 2026-05-05 15:16 | 48.74006 | -122.64397 | 2034 ft | 156 kts | 337° |
| 2026-05-05 15:17 | 48.74997 | -122.65000 | 2033 ft | 151 kts | 337° |
| 2026-05-05 15:17 | 48.75960 | -122.65589 | 2037 ft | 147 kts | 337° |
| 2026-05-05 15:17 | 48.76904 | -122.66171 | 2035 ft | 147 kts | 337° |
| 2026-05-05 15:17 | 48.77852 | -122.66753 | 2035 ft | 147 kts | 337° |
| 2026-05-05 15:18 | 48.78800 | -122.67336 | 2034 ft | 147 kts | 337° |
| 2026-05-05 15:18 | 48.79731 | -122.67908 | 2035 ft | 145 kts | 336° |
| 2026-05-05 15:18 | 48.80667 | -122.68485 | 2037 ft | 145 kts | 337° |
| 2026-05-05 15:18 | 48.81601 | -122.69059 | 2025 ft | 145 kts | 337° |
| 2026-05-05 15:19 | 48.82552 | -122.69657 | 1946 ft | 149 kts | 332° |
| 2026-05-05 15:19 | 48.83292 | -122.70692 | 1986 ft | 142 kts | 310° |
| 2026-05-05 15:19 | 48.83894 | -122.71833 | 2067 ft | 138 kts | 303° |
| 2026-05-05 15:19 | 48.84448 | -122.73080 | 1952 ft | 146 kts | 301° |
| 2026-05-05 15:20 | 48.85011 | -122.74351 | 1951 ft | 143 kts | 301° |
| 2026-05-05 15:20 | 48.85474 | -122.75675 | 1943 ft | 141 kts | 278° |
| 2026-05-05 15:20 | 48.85206 | -122.77029 | 1942 ft | 137 kts | 227° |
| 2026-05-05 15:20 | 48.84549 | -122.78061 | 1940 ft | 136 kts | 224° |
| 2026-05-05 15:21 | 48.83905 | -122.79114 | 1943 ft | 136 kts | 226° |
| 2026-05-05 15:21 | 48.83472 | -122.80398 | 1942 ft | 136 kts | 237° |
| 2026-05-05 15:21 | 48.82919 | -122.81517 | 1940 ft | 130 kts | 214° |
| 2026-05-05 15:21 | 48.82429 | -122.82029 | 1943 ft | 129 kts | 208° |
| 2026-05-05 15:22 | 48.81670 | -122.82763 | 1941 ft | 130 kts | 208° |
| 2026-05-05 15:22 | 48.80905 | -122.83482 | 1939 ft | 126 kts | 208° |
| 2026-05-05 15:22 | 48.79961 | -122.84368 | 1924 ft | 114 kts | 207° |
| 2026-05-05 15:22 | 48.79305 | -122.84976 | 1921 ft | 108 kts | 206° |
| 2026-05-05 15:23 | 48.78873 | -122.85372 | 1924 ft | 106 kts | 206° |
| 2026-05-05 15:23 | 48.78230 | -122.85922 | 1833 ft | 105 kts | 202° |
| 2026-05-05 15:23 | 48.77610 | -122.86477 | 1673 ft | 104 kts | 205° |
| 2026-05-05 15:23 | 48.77001 | -122.87024 | 1502 ft | 101 kts | 205° |
| 2026-05-05 15:24 | 48.76393 | -122.87565 | 1334 ft | 101 kts | 205° |
| 2026-05-05 15:24 | 48.75796 | -122.88092 | 1174 ft | 98 kts | 206° |
| 2026-05-05 15:24 | 48.75208 | -122.88614 | 1014 ft | 97 kts | 205° |
| 2026-05-05 15:24 | 48.74629 | -122.89127 | 851 ft | 95 kts | 205° |
| 2026-05-05 15:25 | 48.74064 | -122.89621 | 700 ft | 93 kts | 204° |
| 2026-05-05 15:25 | 48.73526 | -122.90098 | 574 ft | 79 kts | 202° |
| 2026-05-05 15:25 | 48.73089 | -122.90480 | 440 ft | 69 kts | 199° |
| 2026-05-05 15:25 | 48.72682 | -122.90813 | 370 ft | 67 kts | 195° |
| 2026-05-05 15:26 | 48.72265 | -122.91022 | 296 ft | 62 kts | 183° |
| 2026-05-05 15:26 | 48.71850 | -122.91074 | 163 ft | 58 kts | 173° |
| 2026-05-05 15:26 | 48.71436 | -122.91064 | 80 ft | 60 kts | 173° |
| 2026-05-05 15:26 | 48.71045 | -122.91061 | 22 ft | 48 kts | 179° |
| 2026-05-05 15:27 | 48.70800 | -122.91061 | 22 ft | 20 kts | 179° |
| 2026-05-05 15:27 | 48.70736 | -122.91039 | 22 ft | 4 kts | 122° |
| 2026-05-05 15:27 | 48.70719 | -122.91007 | 22 ft | 2 kts | 155° |
| 2026-05-05 15:27 | 48.70674 | -122.91001 | 22 ft | 11 kts | 179° |
| 2026-05-05 15:28 | 48.70577 | -122.91001 | 22 ft | 15 kts | 179° |
| 2026-05-05 15:28 | 48.70506 | -122.90989 | 22 ft | 7 kts | 90° |
| 2026-05-05 15:28 | 48.70522 | -122.90979 | 22 ft | 0 kts | 357° |